createdAt,value
2022-12-27T00:00:43.116Z,96532.31
2022-12-27T00:03:10.835Z,96529.78
2022-12-27T00:05:38.510Z,96515.47
2022-12-27T00:08:07.538Z,96534.84
2022-12-27T00:10:35.246Z,96532.63
2022-12-27T00:13:02.892Z,96481.94
2022-12-27T00:15:30.549Z,96463.91
2022-12-27T00:17:59.143Z,96549.06
2022-12-27T00:20:27.012Z,96558.78
2022-12-27T00:22:54.695Z,96560.53
2022-12-27T00:25:23.740Z,96568.88
2022-12-27T00:27:51.914Z,96503.41
2022-12-27T00:30:19.897Z,96581.91
2022-12-27T00:32:47.576Z,96583.66
2022-12-27T00:35:15.251Z,96593.50
2022-12-27T00:37:42.917Z,96613.59
2022-12-27T00:40:12.046Z,96598.75
2022-12-27T00:42:41.147Z,96612.59
2022-12-27T00:45:10.129Z,96616.84
2022-12-27T00:47:37.806Z,96545.16
2022-12-27T00:50:05.968Z,96602.69
2022-12-27T00:52:33.674Z,96613.94
2022-12-27T00:55:01.328Z,96629.84
2022-12-27T00:57:28.984Z,96632.97
2022-12-27T00:59:57.983Z,96628.84
2022-12-27T01:02:26.084Z,96632.06
2022-12-27T01:04:55.009Z,96637.59
2022-12-27T01:07:22.722Z,96630.72
2022-12-27T01:09:50.485Z,96652.34
2022-12-27T01:12:18.516Z,96647.66
2022-12-27T01:14:46.809Z,96637.28
2022-12-27T01:17:15.960Z,96567.25
2022-12-27T01:19:43.633Z,96657.91
2022-12-27T01:22:11.332Z,96665.44
2022-12-27T01:24:39.061Z,96574.94
2022-12-27T01:27:06.746Z,96628.38
2022-12-27T01:29:34.421Z,96680.28
2022-12-27T01:32:02.099Z,96646.16
2022-12-27T01:34:31.285Z,96673.69
2022-12-27T01:36:59.083Z,96714.06
2022-12-27T01:39:27.946Z,96714.78
2022-12-27T01:42:13.131Z,96720.25
2022-12-27T01:44:57.599Z,96704.38
2022-12-27T01:47:33.709Z,96726.69
2022-12-27T01:50:10.918Z,96729.44
2022-12-27T01:52:42.574Z,96732.28
2022-12-27T01:55:19.638Z,96658.19
2022-12-27T01:57:48.811Z,96743.69
2022-12-27T02:00:17.562Z,96668.66
2022-12-27T02:02:45.558Z,96745.81
2022-12-27T02:05:17.728Z,96656.94
2022-12-27T02:07:56.450Z,96737.41
2022-12-27T02:10:25.032Z,96730.00
2022-12-27T02:12:52.813Z,96747.78
2022-12-27T02:15:20.618Z,96743.91
2022-12-27T02:17:48.473Z,96739.00
2022-12-27T02:20:19.578Z,96728.78
2022-12-27T02:23:33.479Z,96740.94
2022-12-27T02:26:27.082Z,96743.31
2022-12-27T02:29:08.837Z,96744.25
2022-12-27T02:31:42.062Z,96747.31
2022-12-27T02:34:15.321Z,96745.41
2022-12-27T02:36:46.338Z,96746.63
2022-12-27T02:39:16.743Z,96750.63
2022-12-27T02:42:03.642Z,96751.66
2022-12-27T02:44:50.241Z,96763.13
2022-12-27T02:47:38.485Z,96753.81
2022-12-27T02:50:24.825Z,96746.63
2022-12-27T02:53:07.852Z,96773.84
2022-12-27T02:56:03.641Z,96773.22
2022-12-27T02:58:37.137Z,96758.09
2022-12-27T03:01:35.593Z,96780.22
2022-12-27T03:04:19.847Z,96792.72
2022-12-27T03:07:10.099Z,96778.94
2022-12-27T03:10:17.454Z,96797.66
2022-12-27T03:13:12.618Z,96791.19
2022-12-27T03:16:05.096Z,96784.88
2022-12-27T03:18:45.585Z,96803.53
2022-12-27T03:21:36.361Z,96722.53
2022-12-27T03:24:24.042Z,96767.91
2022-12-27T03:26:52.996Z,96803.03
2022-12-27T03:29:40.457Z,96822.56
2022-12-27T03:32:29.223Z,96830.28
2022-12-27T03:35:06.212Z,96842.41
2022-12-27T03:37:55.683Z,96853.34
2022-12-27T03:40:34.574Z,96855.75
2022-12-27T03:43:12.857Z,96865.06
2022-12-27T03:46:16.783Z,96871.97
2022-12-27T03:49:00.866Z,96885.03
2022-12-27T03:51:36.827Z,96891.28
2022-12-27T03:54:10.223Z,96900.19
2022-12-27T03:56:39.661Z,96883.69
2022-12-27T03:59:08.770Z,96835.25
2022-12-27T04:01:36.708Z,96903.06
2022-12-27T04:04:04.622Z,96876.81
2022-12-27T04:06:33.650Z,96923.16
2022-12-27T04:09:18.783Z,96838.75
2022-12-27T04:12:04.044Z,96935.03
2022-12-27T04:14:50.204Z,96905.84
2022-12-27T04:17:35.381Z,96947.03
2022-12-27T04:20:20.548Z,96934.91
2022-12-27T04:23:06.928Z,96953.13
2022-12-27T04:25:52.122Z,96957.28
2022-12-27T04:28:37.182Z,96957.72
2022-12-27T04:31:22.357Z,96888.81
2022-12-27T04:34:08.148Z,96976.44
2022-12-27T04:36:36.786Z,96953.47
2022-12-27T04:39:06.047Z,96980.28
2022-12-27T04:41:51.139Z,96967.47
2022-12-27T04:44:36.389Z,96828.94
2022-12-27T04:47:21.171Z,96977.66
2022-12-27T04:50:06.550Z,96949.25
2022-12-27T04:52:52.246Z,96978.84
2022-12-27T04:55:24.055Z,96982.28
2022-12-27T04:57:52.344Z,96987.78
2022-12-27T05:00:39.428Z,96987.81
2022-12-27T05:03:09.576Z,96991.00
2022-12-27T05:05:38.681Z,96992.81
2022-12-27T05:08:39.378Z,97002.81
2022-12-27T05:11:26.760Z,97007.84
2022-12-27T05:14:03.542Z,97020.66
2022-12-27T05:16:35.243Z,97029.09
2022-12-27T05:19:02.983Z,97026.69
2022-12-27T05:21:30.634Z,97008.31
2022-12-27T05:24:15.811Z,96971.47
2022-12-27T05:26:45.790Z,97018.72
2022-12-27T05:29:13.480Z,97040.34
2022-12-27T05:31:41.204Z,97008.72
2022-12-27T05:34:08.988Z,97049.56
2022-12-27T05:36:36.647Z,96907.78
2022-12-27T05:39:04.502Z,97044.34
2022-12-27T05:41:32.164Z,97029.34
2022-12-27T05:44:06.933Z,97045.22
2022-12-27T05:46:35.687Z,97046.00
2022-12-27T05:49:03.739Z,97020.97
2022-12-27T05:51:31.464Z,97055.44
2022-12-27T05:53:59.182Z,97059.44
2022-12-27T05:56:26.851Z,97054.63
2022-12-27T05:58:55.019Z,97059.63
2022-12-27T06:01:24.176Z,96992.25
2022-12-27T06:03:51.894Z,96984.19
2022-12-27T06:06:19.597Z,96997.25
2022-12-27T06:08:47.267Z,97050.38
2022-12-27T06:11:16.839Z,97050.38
2022-12-27T06:13:49.541Z,97048.78
2022-12-27T06:16:17.313Z,97040.97
2022-12-27T06:18:46.355Z,97044.34
2022-12-27T06:21:16.110Z,97021.88
2022-12-27T06:23:45.613Z,97050.72
2022-12-27T06:26:15.236Z,97047.94
2022-12-27T06:28:42.966Z,97050.47
2022-12-27T06:31:10.936Z,97054.91
2022-12-27T06:33:38.744Z,96955.22
2022-12-27T06:36:10.056Z,97053.88
2022-12-27T06:38:38.293Z,97018.19
2022-12-27T06:41:07.839Z,97064.28
2022-12-27T06:43:36.395Z,96959.16
2022-12-27T06:46:06.108Z,97053.88
2022-12-27T06:48:33.903Z,97058.88
2022-12-27T06:51:04.675Z,97063.88
2022-12-27T06:53:33.983Z,97038.53
2022-12-27T06:56:05.111Z,97065.22
2022-12-27T06:58:32.783Z,97023.22
2022-12-27T07:01:08.155Z,97067.59
2022-12-27T07:03:35.826Z,96982.13
2022-12-27T07:06:04.019Z,97076.59
2022-12-27T07:08:33.005Z,97069.56
2022-12-27T07:11:01.874Z,97041.53
2022-12-27T07:13:30.671Z,97079.69
2022-12-27T07:15:59.378Z,96975.47
2022-12-27T07:18:27.061Z,97081.09
2022-12-27T07:20:54.706Z,97052.09
2022-12-27T07:23:22.388Z,97073.59
2022-12-27T07:25:51.409Z,97090.34
2022-12-27T07:28:19.050Z,97088.97
2022-12-27T07:30:46.775Z,97090.09
2022-12-27T07:33:14.413Z,97025.44
2022-12-27T07:35:45.096Z,97090.94
2022-12-27T07:38:13.200Z,97090.94
2022-12-27T07:40:40.867Z,96941.41
2022-12-27T07:43:09.939Z,97086.47
2022-12-27T07:45:37.629Z,97096.50
2022-12-27T07:48:05.900Z,96966.88
2022-12-27T07:50:33.565Z,97025.34
2022-12-27T07:53:01.511Z,97095.91
2022-12-27T07:55:29.164Z,97086.81
2022-12-27T07:57:56.833Z,97103.72
2022-12-27T08:00:28.134Z,97106.50
2022-12-27T08:02:55.849Z,97051.75
2022-12-27T08:05:27.622Z,97083.38
2022-12-27T08:07:55.981Z,97111.16
2022-12-27T08:10:23.670Z,97012.13
2022-12-27T08:12:51.723Z,97088.59
2022-12-27T08:15:19.420Z,97108.09
2022-12-27T08:17:48.437Z,97093.00
2022-12-27T08:20:16.130Z,97085.41
2022-12-27T08:22:43.763Z,96933.19
2022-12-27T08:25:11.460Z,97095.28
2022-12-27T08:27:39.209Z,97045.66
2022-12-27T08:30:08.309Z,97096.84
2022-12-27T08:32:36.007Z,97111.91
2022-12-27T08:35:42.034Z,97112.91
2022-12-27T08:37:52.997Z,97071.22
2022-12-27T08:40:21.070Z,97100.53
2022-12-27T08:42:48.833Z,97095.72
2022-12-27T08:45:16.710Z,97095.13
2022-12-27T08:47:44.442Z,96979.28
2022-12-27T08:50:13.427Z,97101.72
2022-12-27T08:52:42.413Z,97114.09
2022-12-27T08:55:10.578Z,97118.09
2022-12-27T08:57:38.494Z,96995.44
2022-12-27T09:00:08.402Z,97124.69
2022-12-27T09:02:36.059Z,97086.19
2022-12-27T09:05:03.797Z,97038.44
2022-12-27T09:07:32.972Z,97115.78
2022-12-27T09:10:00.832Z,97129.03
2022-12-27T09:12:28.471Z,97134.25
2022-12-27T09:14:56.373Z,97114.81
2022-12-27T09:17:23.996Z,97132.28
2022-12-27T09:19:51.702Z,97136.56
2022-12-27T09:22:19.351Z,97123.97
2022-12-27T09:24:48.467Z,97147.09
2022-12-27T09:27:16.156Z,97143.88
2022-12-27T09:29:48.229Z,97148.66
2022-12-27T09:32:16.282Z,97142.03
2022-12-27T09:34:43.996Z,97150.03
2022-12-27T09:37:12.264Z,97149.75
2022-12-27T09:39:39.950Z,97131.03
2022-12-27T09:45:17.858Z,97150.28
2022-12-27T09:47:53.500Z,97146.72
2022-12-27T09:50:28.822Z,97139.72
2022-12-27T09:53:03.206Z,97148.06
2022-12-27T09:55:41.017Z,97139.06
2022-12-27T09:58:38.427Z,97137.66
2022-12-27T10:01:20.009Z,97125.28
2022-12-27T10:03:49.274Z,97106.66
2022-12-27T10:06:31.194Z,97130.50
2022-12-27T10:09:05.633Z,97128.06
2022-12-27T10:11:45.494Z,97129.88
2022-12-27T10:14:28.156Z,97121.97
2022-12-27T10:17:04.544Z,97113.78
2022-12-27T10:19:42.152Z,97116.53
2022-12-27T10:22:21.181Z,97112.91
2022-12-27T10:24:51.811Z,97116.41
2022-12-27T10:27:22.897Z,97114.38
2022-12-27T10:29:54.475Z,97116.13
2022-12-27T10:32:22.547Z,97104.88
2022-12-27T10:34:54.780Z,97113.06
2022-12-27T10:37:22.490Z,97099.88
2022-12-27T10:39:50.196Z,97106.94
2022-12-27T10:42:32.504Z,97088.16
2022-12-27T10:45:34.328Z,97103.03
2022-12-27T10:48:17.621Z,97102.22
2022-12-27T10:50:54.460Z,97112.75
2022-12-27T10:53:35.440Z,97116.72
2022-12-27T10:56:15.598Z,97110.09
2022-12-27T10:58:45.848Z,97115.91
2022-12-27T11:01:23.061Z,97100.66
2022-12-27T11:03:50.946Z,97071.69
2022-12-27T11:06:22.606Z,97103.91
2022-12-27T11:08:51.642Z,97100.50
2022-12-27T11:11:21.649Z,97093.88
2022-12-27T11:13:50.646Z,97099.38
2022-12-27T11:16:28.772Z,97095.63
2022-12-27T11:18:59.446Z,97087.19
2022-12-27T11:21:28.562Z,97005.91
2022-12-27T11:23:59.193Z,97083.06
2022-12-27T11:26:30.750Z,97069.25
2022-12-27T11:29:01.471Z,97070.06
2022-12-27T11:31:35.369Z,97079.31
2022-12-27T11:34:06.705Z,97071.66
2022-12-27T11:36:38.244Z,97070.97
2022-12-27T11:39:07.557Z,97072.56
2022-12-27T11:41:43.775Z,97064.94
2022-12-27T11:44:17.556Z,97062.31
2022-12-27T11:46:55.613Z,97053.53
2022-12-27T11:49:33.385Z,97055.34
2022-12-27T11:52:24.238Z,97022.38
2022-12-27T11:55:31.156Z,97067.56
2022-12-27T11:58:37.473Z,97072.53
2022-12-27T12:01:25.559Z,97034.47
2022-12-27T12:04:14.830Z,97071.97
2022-12-27T12:06:55.577Z,97068.97
2022-12-27T12:09:43.700Z,97067.28
2022-12-27T12:12:38.793Z,97038.25
2022-12-27T12:15:39.343Z,97064.63
2022-12-27T12:18:16.575Z,97058.78
2022-12-27T12:21:18.990Z,97060.34
2022-12-27T12:23:58.527Z,97046.88
2022-12-27T12:26:27.421Z,97040.06
2022-12-27T12:29:22.806Z,97045.59
2022-12-27T12:32:27.429Z,97051.25
2022-12-27T12:35:15.218Z,97050.59
2022-12-27T12:38:04.449Z,97038.84
2022-12-27T12:40:53.451Z,97042.19
2022-12-27T12:43:41.473Z,97027.84
2022-12-27T12:46:24.969Z,97031.56
2022-12-27T12:49:05.436Z,97045.38
2022-12-27T12:51:56.048Z,97040.38
2022-12-27T12:54:55.655Z,97027.13
2022-12-27T12:57:40.844Z,97034.94
2022-12-27T13:00:30.908Z,97033.78
2022-12-27T13:03:48.632Z,97032.94
2022-12-27T13:06:35.190Z,97037.09
2022-12-27T13:09:11.111Z,97007.97
2022-12-27T13:11:53.985Z,97026.94
2022-12-27T13:14:35.499Z,97014.81
2022-12-27T13:17:10.640Z,97022.59
2022-12-27T13:20:03.315Z,97017.13
2022-12-27T13:22:47.163Z,97005.94
2022-12-27T13:25:28.891Z,97020.34
2022-12-27T13:28:09.844Z,97027.56
2022-12-27T13:30:43.794Z,97023.78
2022-12-27T13:33:22.915Z,96968.63
2022-12-27T13:36:06.939Z,97030.97
2022-12-27T13:38:51.878Z,96944.19
2022-12-27T13:41:36.127Z,97022.97
2022-12-27T13:44:18.453Z,97016.94
2022-12-27T13:47:03.604Z,97012.22
2022-12-27T13:49:51.371Z,97005.94
2022-12-27T13:52:38.688Z,96905.63
2022-12-27T13:55:43.185Z,97004.22
2022-12-27T13:58:37.954Z,97003.50
2022-12-27T14:01:28.463Z,97000.75
2022-12-27T14:04:16.273Z,96995.94
2022-12-27T14:07:28.473Z,96998.56
2022-12-27T14:10:19.182Z,96961.69
2022-12-27T14:12:57.162Z,97002.66
2022-12-27T14:15:29.229Z,96994.31
2022-12-27T14:18:17.055Z,97015.31
2022-12-27T14:21:00.149Z,97007.19
2022-12-27T14:23:38.361Z,97013.22
2022-12-27T14:26:43.601Z,97026.38
2022-12-27T14:29:47.834Z,97031.63
2022-12-27T14:32:54.478Z,97025.22
2022-12-27T14:35:51.216Z,97021.47
2022-12-27T14:38:57.298Z,97007.84
2022-12-27T14:41:57.327Z,97021.53
2022-12-27T14:45:10.243Z,97032.50
2022-12-27T14:48:01.968Z,97028.59
2022-12-27T14:51:41.533Z,97031.34
2022-12-27T14:54:25.509Z,97021.09
2022-12-27T14:57:03.598Z,97020.34
2022-12-27T14:59:43.801Z,97027.47
2022-12-27T15:02:33.733Z,97030.16
2022-12-27T15:05:22.113Z,97018.59
2022-12-27T15:08:18.052Z,97024.03
2022-12-27T15:11:00.365Z,97011.84
2022-12-27T15:13:44.981Z,97007.88
2022-12-27T15:16:21.479Z,96994.72
2022-12-27T15:19:06.739Z,97025.84
2022-12-27T15:21:49.794Z,97005.72
2022-12-27T15:24:26.971Z,97024.88
2022-12-27T15:27:04.708Z,96942.53
2022-12-27T15:29:42.857Z,97027.78
2022-12-27T15:32:24.548Z,97034.50
2022-12-27T15:35:19.312Z,97033.34
2022-12-27T15:38:05.696Z,97025.00
2022-12-27T15:40:56.491Z,97023.00
2022-12-27T15:43:50.925Z,97014.66
2022-12-27T15:46:36.367Z,97031.50
2022-12-27T15:49:18.552Z,97031.16
2022-12-27T15:51:54.622Z,97008.53
2022-12-27T15:54:53.835Z,97034.38
2022-12-27T15:57:38.877Z,97025.25
2022-12-27T16:00:16.019Z,97046.28
2022-12-27T16:02:56.330Z,97025.88
2022-12-27T16:05:48.642Z,97031.06
2022-12-27T16:08:26.865Z,97019.06
2022-12-27T16:10:56.028Z,97024.63
2022-12-27T16:13:43.490Z,97036.28
2022-12-27T16:16:57.513Z,97029.09
2022-12-27T16:19:47.452Z,96973.97
2022-12-27T16:22:25.956Z,97018.28
2022-12-27T16:24:53.714Z,97003.84
2022-12-27T16:27:32.119Z,96962.66
2022-12-27T16:30:00.491Z,97024.88
2022-12-27T16:32:30.063Z,97030.59
2022-12-27T16:35:14.988Z,96957.31
2022-12-27T16:37:46.125Z,97008.63
2022-12-27T16:40:38.987Z,97022.63
2022-12-27T16:43:43.935Z,97019.44
2022-12-27T16:46:24.687Z,97014.69
2022-12-27T16:49:24.201Z,97020.69
2022-12-27T16:52:04.252Z,97015.09
2022-12-27T16:54:46.733Z,96989.69
2022-12-27T16:57:38.471Z,97006.13
2022-12-27T17:00:23.429Z,96981.84
2022-12-27T17:02:51.184Z,96995.47
2022-12-27T17:05:37.171Z,96991.47
2022-12-27T17:08:16.367Z,96983.28
2022-12-27T17:11:01.182Z,96985.47
2022-12-27T17:13:43.690Z,96970.88
2022-12-27T17:16:20.171Z,96983.06
2022-12-27T17:18:51.986Z,96979.47
2022-12-27T17:21:30.125Z,96978.09
2022-12-27T17:24:00.892Z,96981.06
2022-12-27T17:26:58.041Z,96969.06
2022-12-27T17:29:57.434Z,96971.88
2022-12-27T17:32:39.401Z,96967.25
2022-12-27T17:35:15.397Z,96966.06
2022-12-27T17:38:01.077Z,96972.66
2022-12-27T17:40:39.807Z,96921.00
2022-12-27T17:43:44.602Z,96975.84
2022-12-27T17:46:25.099Z,96799.50
2022-12-27T17:48:54.833Z,96971.88
2022-12-27T17:51:26.795Z,96967.84
2022-12-27T17:54:14.770Z,96977.84
2022-12-27T17:57:04.758Z,96942.81
2022-12-27T17:59:34.746Z,96951.03
2022-12-27T18:02:12.980Z,96959.44
2022-12-27T18:04:47.903Z,96957.81
2022-12-27T18:07:22.672Z,96949.59
2022-12-27T18:09:54.605Z,96950.81
2022-12-27T18:12:25.291Z,96936.59
2022-12-27T18:14:58.731Z,96948.00
2022-12-27T18:17:31.810Z,96930.97
2022-12-27T18:19:59.552Z,96853.53
2022-12-27T18:22:27.892Z,96927.78
2022-12-27T18:24:56.866Z,96947.81
2022-12-27T18:27:26.602Z,96943.38
2022-12-27T18:29:54.419Z,96935.41
2022-12-27T18:32:25.604Z,96940.38
2022-12-27T18:34:57.751Z,96922.16
2022-12-27T18:37:26.904Z,96920.78
2022-12-27T18:40:00.139Z,96811.50
2022-12-27T18:42:32.143Z,96810.09
2022-12-27T18:45:03.140Z,96904.34
2022-12-27T18:47:31.251Z,96930.56
2022-12-27T18:50:01.264Z,96886.31
2022-12-27T18:52:33.196Z,96935.00
2022-12-27T18:55:15.687Z,96935.41
2022-12-27T18:57:43.398Z,96761.28
2022-12-27T19:00:21.517Z,96937.00
2022-12-27T19:02:50.277Z,96925.34
2022-12-27T19:05:30.556Z,96891.72
2022-12-27T19:08:08.933Z,96924.97
2022-12-27T19:10:41.373Z,96921.78
2022-12-27T19:13:22.126Z,96919.38
2022-12-27T19:15:51.151Z,96925.75
2022-12-27T19:18:26.155Z,96925.16
2022-12-27T19:20:58.360Z,96930.38
2022-12-27T19:23:30.886Z,96918.56
2022-12-27T19:26:04.508Z,96924.00
2022-12-27T19:28:33.705Z,96890.94
2022-12-27T19:31:18.053Z,96922.59
2022-12-27T19:33:49.119Z,96920.16
2022-12-27T19:36:17.960Z,96908.97
2022-12-27T19:38:47.965Z,96916.97
2022-12-27T19:41:17.280Z,96911.56
2022-12-27T19:43:46.933Z,96908.97
2022-12-27T19:46:15.544Z,96908.56
2022-12-27T19:48:43.852Z,96910.56
2022-12-27T19:51:16.137Z,96903.56
2022-12-27T19:53:45.888Z,96836.53
2022-12-27T19:56:13.620Z,96900.56
2022-12-27T19:58:42.762Z,96880.16
2022-12-27T20:01:10.472Z,96892.47
2022-12-27T20:03:38.489Z,96886.03
2022-12-27T20:06:13.952Z,96884.81
2022-12-27T20:08:45.641Z,96889.97
2022-12-27T20:11:15.865Z,96864.13
2022-12-27T20:13:45.136Z,96891.16
2022-12-27T20:16:14.422Z,96888.03
2022-12-27T20:18:43.132Z,96863.63
2022-12-27T20:21:13.045Z,96896.91
2022-12-27T20:23:42.047Z,96893.75
2022-12-27T20:26:10.403Z,96901.75
2022-12-27T20:28:38.159Z,96844.91
2022-12-27T20:31:12.093Z,96896.97
2022-12-27T20:33:39.949Z,96831.69
2022-12-27T20:36:09.051Z,96889.13
2022-12-27T20:38:37.029Z,96888.75
2022-12-27T20:41:08.933Z,96816.50
2022-12-27T20:43:36.899Z,96868.13
2022-12-27T20:46:06.257Z,96880.94
2022-12-27T20:48:37.703Z,96883.75
2022-12-27T20:51:08.263Z,96873.75
2022-12-27T20:53:35.997Z,96844.53
2022-12-27T20:56:05.163Z,96888.56
2022-12-27T20:58:33.609Z,96878.94
2022-12-27T21:01:07.462Z,96868.94
2022-12-27T21:03:37.353Z,96883.97
2022-12-27T21:06:11.263Z,96868.34
2022-12-27T21:08:46.641Z,96881.53
2022-12-27T21:11:17.972Z,96871.53
2022-12-27T21:13:46.848Z,96868.94
2022-12-27T21:16:17.797Z,96868.34
2022-12-27T21:18:47.115Z,96855.50
2022-12-27T21:21:19.414Z,96868.94
2022-12-27T21:23:47.935Z,96850.13
2022-12-27T21:26:17.492Z,96815.91
2022-12-27T21:28:46.027Z,96843.34
2022-12-27T21:31:17.790Z,96852.94
2022-12-27T21:33:47.755Z,96853.34
2022-12-27T21:36:17.443Z,96855.53
2022-12-27T21:38:46.627Z,96843.94
2022-12-27T21:41:16.130Z,96834.53
2022-12-27T21:43:44.899Z,96819.69
2022-12-27T21:46:15.392Z,96842.75
2022-12-27T21:48:43.295Z,96835.72
2022-12-27T21:51:14.893Z,96844.94
2022-12-27T21:53:43.456Z,96849.13
2022-12-27T21:56:12.124Z,96838.91
2022-12-27T21:58:40.879Z,96819.88
2022-12-27T22:01:11.520Z,96847.28
2022-12-27T22:03:41.402Z,96837.88
2022-12-27T22:06:15.964Z,96834.91
2022-12-27T22:08:44.949Z,96829.31
2022-12-27T22:11:13.389Z,96832.09
2022-12-27T22:13:41.102Z,96829.66
2022-12-27T22:16:13.162Z,96833.47
2022-12-27T22:18:42.874Z,96824.44
2022-12-27T22:21:14.032Z,96823.47
2022-12-27T22:23:44.079Z,96826.44
2022-12-27T22:26:13.763Z,96797.22
2022-12-27T22:28:41.834Z,96841.66
2022-12-27T22:31:10.960Z,96820.88
2022-12-27T22:33:39.065Z,96807.69
2022-12-27T22:36:08.632Z,96823.28
2022-12-27T22:38:37.943Z,96816.91
2022-12-27T22:41:08.276Z,96809.28
2022-12-27T22:43:36.081Z,96800.28
2022-12-27T22:46:07.666Z,96814.88
2022-12-27T22:48:35.823Z,96790.47
2022-12-27T22:51:08.667Z,96802.47
2022-12-27T22:53:37.686Z,96809.28
2022-12-27T22:56:05.357Z,96806.91
2022-12-27T22:58:33.469Z,96755.91
2022-12-27T23:01:01.598Z,96779.69
2022-12-27T23:03:29.354Z,96792.91
2022-12-27T23:05:58.706Z,96769.88
2022-12-27T23:08:26.812Z,96773.47
2022-12-27T23:11:01.784Z,96786.69
2022-12-27T23:13:29.465Z,96756.66
2022-12-27T23:15:57.993Z,96788.69
2022-12-27T23:18:25.909Z,96763.25
2022-12-27T23:21:21.836Z,96795.66
2022-12-27T23:23:42.646Z,96795.66
2022-12-27T23:26:15.446Z,96785.66
2022-12-27T23:28:44.331Z,96773.63
2022-12-27T23:31:13.876Z,96743.97
2022-12-27T23:33:43.256Z,96775.78
2022-12-27T23:36:13.941Z,96763.16
2022-12-27T23:38:41.861Z,96684.09
2022-12-27T23:41:15.851Z,96776.78
2022-12-27T23:43:53.359Z,96783.75
2022-12-27T23:46:25.002Z,96764.75
2022-12-27T23:48:53.156Z,96786.72
2022-12-27T23:51:22.195Z,96714.28
2022-12-27T23:53:50.206Z,96791.75
2022-12-27T23:56:21.639Z,96782.72
2022-12-27T23:58:50.396Z,96767.47
